sensor_id;sensor_type;location;lat;lon;timestamp;temperature;humidity
11538;DHT22;50159;49.426;11.182;2023-07-29T00:01:36;17.10;99.90
11538;DHT22;50159;49.426;11.182;2023-07-29T00:04:03;17.10;99.90
11538;DHT22;50159;49.426;11.182;2023-07-29T00:06:31;17.00;99.90
11538;DHT22;50159;49.426;11.182;2023-07-29T00:08:58;17.00;99.90
11538;DHT22;50159;49.426;11.182;2023-07-29T00:11:25;17.00;99.90
11538;DHT22;50159;49.426;11.182;2023-07-29T00:13:51;17.00;99.90
11538;DHT22;50159;49.426;11.182;2023-07-29T00:16:19;16.90;99.90
11538;DHT22;50159;49.426;11.182;2023-07-29T00:18:49;16.90;99.90
11538;DHT22;50159;49.426;11.182;2023-07-29T00:21:16;16.90;99.90
11538;DHT22;50159;49.426;11.182;2023-07-29T00:23:43;16.90;99.90
11538;DHT22;50159;49.426;11.182;2023-07-29T00:26:09;16.90;99.90
11538;DHT22;50159;49.426;11.182;2023-07-29T00:28:36;16.80;99.90
11538;DHT22;50159;49.426;11.182;2023-07-29T00:31:03;16.80;99.90
11538;DHT22;50159;49.426;11.182;2023-07-29T00:33:31;16.80;99.90
11538;DHT22;50159;49.426;11.182;2023-07-29T00:35:58;16.80;99.90
11538;DHT22;50159;49.426;11.182;2023-07-29T00:38:28;16.80;99.90
11538;DHT22;50159;49.426;11.182;2023-07-29T00:40:57;16.80;99.90
11538;DHT22;50159;49.426;11.182;2023-07-29T00:43:25;16.80;99.90
11538;DHT22;50159;49.426;11.182;2023-07-29T00:45:52;16.80;99.90
11538;DHT22;50159;49.426;11.182;2023-07-29T00:48:19;16.80;99.90
11538;DHT22;50159;49.426;11.182;2023-07-29T00:50:47;16.70;99.90
11538;DHT22;50159;49.426;11.182;2023-07-29T00:53:14;16.70;99.90
11538;DHT22;50159;49.426;11.182;2023-07-29T00:55:41;16.70;99.90
11538;DHT22;50159;49.426;11.182;2023-07-29T00:58:10;16.70;99.90
11538;DHT22;50159;49.426;11.182;2023-07-29T01:00:37;16.60;99.90
11538;DHT22;50159;49.426;11.182;2023-07-29T01:03:04;16.60;99.90
11538;DHT22;50159;49.426;11.182;2023-07-29T01:05:39;16.60;99.90
11538;DHT22;50159;49.426;11.182;2023-07-29T01:08:25;16.70;99.90
11538;DHT22;50159;49.426;11.182;2023-07-29T01:11:25;16.60;99.90
11538;DHT22;50159;49.426;11.182;2023-07-29T01:16:53;16.60;99.90
11538;DHT22;50159;49.426;11.182;2023-07-29T01:19:43;16.60;99.90
11538;DHT22;50159;49.426;11.182;2023-07-29T01:22:15;16.60;99.90
11538;DHT22;50159;49.426;11.182;2023-07-29T01:24:43;16.60;99.90
11538;DHT22;50159;49.426;11.182;2023-07-29T01:27:09;16.50;99.90
11538;DHT22;50159;49.426;11.182;2023-07-29T01:29:36;16.50;99.90
11538;DHT22;50159;49.426;11.182;2023-07-29T01:32:29;16.50;99.90
11538;DHT22;50159;49.426;11.182;2023-07-29T01:35:33;16.40;99.90
11538;DHT22;50159;49.426;11.182;2023-07-29T01:38:30;16.40;99.90
11538;DHT22;50159;49.426;11.182;2023-07-29T01:41:01;16.30;99.90
11538;DHT22;50159;49.426;11.182;2023-07-29T01:43:30;16.30;99.90
11538;DHT22;50159;49.426;11.182;2023-07-29T01:45:58;16.20;99.90
11538;DHT22;50159;49.426;11.182;2023-07-29T01:48:25;16.20;99.90
11538;DHT22;50159;49.426;11.182;2023-07-29T01:50:53;16.20;99.90
11538;DHT22;50159;49.426;11.182;2023-07-29T01:53:20;16.10;99.90
11538;DHT22;50159;49.426;11.182;2023-07-29T01:55:47;16.10;99.90
11538;DHT22;50159;49.426;11.182;2023-07-29T01:58:14;16.10;99.90
11538;DHT22;50159;49.426;11.182;2023-07-29T02:00:41;16.10;99.90
11538;DHT22;50159;49.426;11.182;2023-07-29T02:03:08;16.10;99.90
11538;DHT22;50159;49.426;11.182;2023-07-29T02:05:34;16.10;99.90
11538;DHT22;50159;49.426;11.182;2023-07-29T02:08:01;16.00;99.90
11538;DHT22;50159;49.426;11.182;2023-07-29T02:10:28;16.00;99.90
11538;DHT22;50159;49.426;11.182;2023-07-29T02:12:55;16.00;99.90
11538;DHT22;50159;49.426;11.182;2023-07-29T02:15:22;16.00;99.90
11538;DHT22;50159;49.426;11.182;2023-07-29T02:17:50;16.00;99.90
11538;DHT22;50159;49.426;11.182;2023-07-29T02:20:18;16.00;99.90
11538;DHT22;50159;49.426;11.182;2023-07-29T02:22:45;16.00;99.90
11538;DHT22;50159;49.426;11.182;2023-07-29T02:25:11;16.00;99.90
11538;DHT22;50159;49.426;11.182;2023-07-29T02:27:38;15.90;99.90
11538;DHT22;50159;49.426;11.182;2023-07-29T02:30:06;15.90;99.90
11538;DHT22;50159;49.426;11.182;2023-07-29T02:32:33;15.80;99.90
11538;DHT22;50159;49.426;11.182;2023-07-29T02:35:00;15.80;99.90
11538;DHT22;50159;49.426;11.182;2023-07-29T02:37:26;15.80;99.90
11538;DHT22;50159;49.426;11.182;2023-07-29T02:39:53;15.80;99.90
11538;DHT22;50159;49.426;11.182;2023-07-29T02:42:20;15.70;99.90
11538;DHT22;50159;49.426;11.182;2023-07-29T02:44:47;15.70;99.90
11538;DHT22;50159;49.426;11.182;2023-07-29T02:47:14;15.70;99.90
11538;DHT22;50159;49.426;11.182;2023-07-29T02:49:40;15.60;99.90
11538;DHT22;50159;49.426;11.182;2023-07-29T02:52:07;15.60;99.90
11538;DHT22;50159;49.426;11.182;2023-07-29T02:54:34;15.60;99.90
11538;DHT22;50159;49.426;11.182;2023-07-29T02:57:01;15.60;99.90
11538;DHT22;50159;49.426;11.182;2023-07-29T02:59:28;15.50;99.90
11538;DHT22;50159;49.426;11.182;2023-07-29T03:01:54;15.50;99.90
11538;DHT22;50159;49.426;11.182;2023-07-29T03:04:21;15.50;99.90
11538;DHT22;50159;49.426;11.182;2023-07-29T03:06:49;15.40;99.90
11538;DHT22;50159;49.426;11.182;2023-07-29T03:09:16;15.40;99.90
11538;DHT22;50159;49.426;11.182;2023-07-29T03:11:43;15.40;99.90
11538;DHT22;50159;49.426;11.182;2023-07-29T03:14:10;15.90;99.90
11538;DHT22;50159;49.426;11.182;2023-07-29T03:16:37;15.30;99.90
11538;DHT22;50159;49.426;11.182;2023-07-29T03:19:04;15.30;99.90
11538;DHT22;50159;49.426;11.182;2023-07-29T03:21:32;15.20;99.90
11538;DHT22;50159;49.426;11.182;2023-07-29T03:23:59;15.20;99.90
11538;DHT22;50159;49.426;11.182;2023-07-29T03:26:27;15.20;99.90
11538;DHT22;50159;49.426;11.182;2023-07-29T03:28:54;15.20;99.90
11538;DHT22;50159;49.426;11.182;2023-07-29T03:31:20;15.20;99.90
11538;DHT22;50159;49.426;11.182;2023-07-29T03:33:47;15.20;99.90
11538;DHT22;50159;49.426;11.182;2023-07-29T03:36:14;15.20;99.90
11538;DHT22;50159;49.426;11.182;2023-07-29T03:38:42;15.10;99.90
11538;DHT22;50159;49.426;11.182;2023-07-29T03:41:09;15.10;99.90
11538;DHT22;50159;49.426;11.182;2023-07-29T03:43:35;15.10;99.90
11538;DHT22;50159;49.426;11.182;2023-07-29T03:46:02;15.10;99.90
11538;DHT22;50159;49.426;11.182;2023-07-29T03:48:29;15.10;99.90
11538;DHT22;50159;49.426;11.182;2023-07-29T03:50:57;15.10;99.90
11538;DHT22;50159;49.426;11.182;2023-07-29T03:53:24;15.10;99.90
11538;DHT22;50159;49.426;11.182;2023-07-29T03:55:52;15.10;99.90
11538;DHT22;50159;49.426;11.182;2023-07-29T03:58:18;15.10;99.90
11538;DHT22;50159;49.426;11.182;2023-07-29T04:00:45;15.10;99.90
11538;DHT22;50159;49.426;11.182;2023-07-29T04:03:12;15.20;99.90
11538;DHT22;50159;49.426;11.182;2023-07-29T04:05:43;15.20;99.90
11538;DHT22;50159;49.426;11.182;2023-07-29T04:08:09;15.30;99.90
11538;DHT22;50159;49.426;11.182;2023-07-29T04:10:36;15.30;99.90
11538;DHT22;50159;49.426;11.182;2023-07-29T04:13:04;15.40;99.90
11538;DHT22;50159;49.426;11.182;2023-07-29T04:15:31;15.40;99.90
11538;DHT22;50159;49.426;11.182;2023-07-29T04:17:58;15.50;99.90
11538;DHT22;50159;49.426;11.182;2023-07-29T04:20:25;15.60;99.90
11538;DHT22;50159;49.426;11.182;2023-07-29T04:22:52;15.70;99.90
11538;DHT22;50159;49.426;11.182;2023-07-29T04:25:18;15.70;99.90
11538;DHT22;50159;49.426;11.182;2023-07-29T04:27:45;15.80;99.90
11538;DHT22;50159;49.426;11.182;2023-07-29T04:30:12;15.90;99.90
11538;DHT22;50159;49.426;11.182;2023-07-29T04:32:39;16.00;99.90
11538;DHT22;50159;49.426;11.182;2023-07-29T04:35:06;16.10;99.90
11538;DHT22;50159;49.426;11.182;2023-07-29T04:37:33;16.20;99.90
11538;DHT22;50159;49.426;11.182;2023-07-29T04:40:00;16.30;99.90
11538;DHT22;50159;49.426;11.182;2023-07-29T04:42:27;16.30;99.90
11538;DHT22;50159;49.426;11.182;2023-07-29T04:44:53;16.40;99.90
11538;DHT22;50159;49.426;11.182;2023-07-29T04:47:21;16.50;99.90
11538;DHT22;50159;49.426;11.182;2023-07-29T04:49:50;16.60;99.90
11538;DHT22;50159;49.426;11.182;2023-07-29T04:52:16;16.60;99.90
11538;DHT22;50159;49.426;11.182;2023-07-29T04:54:45;16.70;99.90
11538;DHT22;50159;49.426;11.182;2023-07-29T04:57:12;16.70;99.90
11538;DHT22;50159;49.426;11.182;2023-07-29T04:59:39;16.80;99.90
11538;DHT22;50159;49.426;11.182;2023-07-29T05:02:06;16.90;99.90
11538;DHT22;50159;49.426;11.182;2023-07-29T05:04:32;17.00;99.90
11538;DHT22;50159;49.426;11.182;2023-07-29T05:06:59;17.00;99.90
11538;DHT22;50159;49.426;11.182;2023-07-29T05:09:26;17.10;99.90
11538;DHT22;50159;49.426;11.182;2023-07-29T05:11:54;17.20;99.90
11538;DHT22;50159;49.426;11.182;2023-07-29T05:14:21;17.20;99.90
11538;DHT22;50159;49.426;11.182;2023-07-29T05:16:48;17.20;99.90
11538;DHT22;50159;49.426;11.182;2023-07-29T05:19:15;17.30;99.90
11538;DHT22;50159;49.426;11.182;2023-07-29T05:21:42;17.30;99.90
11538;DHT22;50159;49.426;11.182;2023-07-29T05:24:09;17.30;99.90
11538;DHT22;50159;49.426;11.182;2023-07-29T05:26:36;17.30;99.90
11538;DHT22;50159;49.426;11.182;2023-07-29T05:29:03;17.40;99.90
11538;DHT22;50159;49.426;11.182;2023-07-29T05:31:30;17.40;99.90
11538;DHT22;50159;49.426;11.182;2023-07-29T05:33:58;17.40;99.90
11538;DHT22;50159;49.426;11.182;2023-07-29T05:36:25;17.40;99.90
11538;DHT22;50159;49.426;11.182;2023-07-29T05:38:52;17.40;99.90
11538;DHT22;50159;49.426;11.182;2023-07-29T05:41:19;17.40;99.90
11538;DHT22;50159;49.426;11.182;2023-07-29T05:43:46;17.50;99.90
11538;DHT22;50159;49.426;11.182;2023-07-29T05:46:13;17.50;99.90
11538;DHT22;50159;49.426;11.182;2023-07-29T05:48:40;17.60;99.90
11538;DHT22;50159;49.426;11.182;2023-07-29T05:51:07;17.60;99.90
11538;DHT22;50159;49.426;11.182;2023-07-29T05:53:34;17.60;99.90
11538;DHT22;50159;49.426;11.182;2023-07-29T05:56:00;17.70;99.90
11538;DHT22;50159;49.426;11.182;2023-07-29T05:58:27;17.70;99.90
11538;DHT22;50159;49.426;11.182;2023-07-29T06:00:54;17.70;99.90
11538;DHT22;50159;49.426;11.182;2023-07-29T06:03:21;17.80;99.90
11538;DHT22;50159;49.426;11.182;2023-07-29T06:05:49;17.80;99.90
11538;DHT22;50159;49.426;11.182;2023-07-29T06:08:20;17.80;99.90
11538;DHT22;50159;49.426;11.182;2023-07-29T06:10:47;17.80;99.90
11538;DHT22;50159;49.426;11.182;2023-07-29T06:13:13;17.80;99.90
11538;DHT22;50159;49.426;11.182;2023-07-29T06:15:43;17.80;99.90
11538;DHT22;50159;49.426;11.182;2023-07-29T06:18:10;17.70;99.90
11538;DHT22;50159;49.426;11.182;2023-07-29T06:20:37;17.80;99.90
11538;DHT22;50159;49.426;11.182;2023-07-29T06:23:04;17.70;99.90
11538;DHT22;50159;49.426;11.182;2023-07-29T06:25:31;17.70;99.90
11538;DHT22;50159;49.426;11.182;2023-07-29T06:27:58;17.60;99.90
11538;DHT22;50159;49.426;11.182;2023-07-29T06:30:25;17.70;99.90
11538;DHT22;50159;49.426;11.182;2023-07-29T06:32:52;17.70;99.90
11538;DHT22;50159;49.426;11.182;2023-07-29T06:35:19;17.60;99.90
11538;DHT22;50159;49.426;11.182;2023-07-29T06:37:45;17.60;99.90
11538;DHT22;50159;49.426;11.182;2023-07-29T06:40:12;17.70;99.90
11538;DHT22;50159;49.426;11.182;2023-07-29T06:42:39;17.60;99.90
11538;DHT22;50159;49.426;11.182;2023-07-29T06:45:06;17.60;99.90
11538;DHT22;50159;49.426;11.182;2023-07-29T06:47:33;17.70;99.90
11538;DHT22;50159;49.426;11.182;2023-07-29T06:50:00;17.60;99.90
11538;DHT22;50159;49.426;11.182;2023-07-29T06:52:27;17.60;99.90
11538;DHT22;50159;49.426;11.182;2023-07-29T06:54:54;17.60;99.90
11538;DHT22;50159;49.426;11.182;2023-07-29T06:57:21;17.60;99.90
11538;DHT22;50159;49.426;11.182;2023-07-29T06:59:48;17.60;99.90
11538;DHT22;50159;49.426;11.182;2023-07-29T07:02:15;17.50;99.90
11538;DHT22;50159;49.426;11.182;2023-07-29T07:04:41;17.50;99.90
11538;DHT22;50159;49.426;11.182;2023-07-29T07:07:08;17.40;99.90
11538;DHT22;50159;49.426;11.182;2023-07-29T07:09:35;17.40;99.90
11538;DHT22;50159;49.426;11.182;2023-07-29T07:12:02;17.40;99.90
11538;DHT22;50159;49.426;11.182;2023-07-29T07:14:29;17.40;99.90
11538;DHT22;50159;49.426;11.182;2023-07-29T07:16:56;17.40;99.90
11538;DHT22;50159;49.426;11.182;2023-07-29T07:19:23;17.50;99.90
11538;DHT22;50159;49.426;11.182;2023-07-29T07:21:50;17.60;99.90
11538;DHT22;50159;49.426;11.182;2023-07-29T07:24:16;17.70;99.90
11538;DHT22;50159;49.426;11.182;2023-07-29T07:26:46;17.70;99.90
11538;DHT22;50159;49.426;11.182;2023-07-29T07:29:13;17.90;99.90
11538;DHT22;50159;49.426;11.182;2023-07-29T07:31:40;18.00;99.90
11538;DHT22;50159;49.426;11.182;2023-07-29T07:34:07;18.10;99.90
11538;DHT22;50159;49.426;11.182;2023-07-29T07:36:34;18.20;99.90
11538;DHT22;50159;49.426;11.182;2023-07-29T07:39:02;18.30;99.90
11538;DHT22;50159;49.426;11.182;2023-07-29T07:41:28;18.40;99.90
11538;DHT22;50159;49.426;11.182;2023-07-29T07:43:55;18.50;99.90
11538;DHT22;50159;49.426;11.182;2023-07-29T07:46:22;18.60;99.90
11538;DHT22;50159;49.426;11.182;2023-07-29T07:48:49;18.70;99.90
11538;DHT22;50159;49.426;11.182;2023-07-29T07:51:16;18.80;99.90
11538;DHT22;50159;49.426;11.182;2023-07-29T07:53:42;18.80;99.90
11538;DHT22;50159;49.426;11.182;2023-07-29T07:56:09;18.80;99.90
11538;DHT22;50159;49.426;11.182;2023-07-29T07:58:36;18.80;99.90
11538;DHT22;50159;49.426;11.182;2023-07-29T08:01:06;18.70;99.90
11538;DHT22;50159;49.426;11.182;2023-07-29T08:03:35;18.70;99.90
11538;DHT22;50159;49.426;11.182;2023-07-29T08:06:02;18.60;99.90
11538;DHT22;50159;49.426;11.182;2023-07-29T08:08:30;18.60;99.90
11538;DHT22;50159;49.426;11.182;2023-07-29T08:10:57;18.60;99.90
11538;DHT22;50159;49.426;11.182;2023-07-29T08:13:24;18.50;99.90
11538;DHT22;50159;49.426;11.182;2023-07-29T08:15:52;18.50;99.90
11538;DHT22;50159;49.426;11.182;2023-07-29T08:18:20;18.50;99.90
11538;DHT22;50159;49.426;11.182;2023-07-29T08:20:58;18.50;99.90
11538;DHT22;50159;49.426;11.182;2023-07-29T08:23:27;18.40;99.90
11538;DHT22;50159;49.426;11.182;2023-07-29T08:25:55;18.40;99.90
11538;DHT22;50159;49.426;11.182;2023-07-29T08:28:29;18.40;99.90
11538;DHT22;50159;49.426;11.182;2023-07-29T08:30:57;18.40;99.90
11538;DHT22;50159;49.426;11.182;2023-07-29T08:33:25;18.40;99.90
11538;DHT22;50159;49.426;11.182;2023-07-29T08:35:52;18.30;99.90
11538;DHT22;50159;49.426;11.182;2023-07-29T08:38:19;18.30;99.90
11538;DHT22;50159;49.426;11.182;2023-07-29T08:41:16;18.20;99.90
11538;DHT22;50159;49.426;11.182;2023-07-29T08:43:52;18.20;99.90
11538;DHT22;50159;49.426;11.182;2023-07-29T08:46:26;18.20;99.90
11538;DHT22;50159;49.426;11.182;2023-07-29T08:48:55;18.10;99.90
11538;DHT22;50159;49.426;11.182;2023-07-29T08:51:23;18.10;99.90
11538;DHT22;50159;49.426;11.182;2023-07-29T08:53:51;18.10;99.90
11538;DHT22;50159;49.426;11.182;2023-07-29T08:56:19;18.10;99.90
11538;DHT22;50159;49.426;11.182;2023-07-29T08:58:46;18.00;99.90
11538;DHT22;50159;49.426;11.182;2023-07-29T09:01:15;18.00;99.90
11538;DHT22;50159;49.426;11.182;2023-07-29T09:03:42;18.00;99.90
11538;DHT22;50159;49.426;11.182;2023-07-29T09:06:09;18.00;99.90
11538;DHT22;50159;49.426;11.182;2023-07-29T09:08:38;18.00;99.90
11538;DHT22;50159;49.426;11.182;2023-07-29T09:11:06;18.00;99.90
11538;DHT22;50159;49.426;11.182;2023-07-29T09:13:33;18.10;99.90
11538;DHT22;50159;49.426;11.182;2023-07-29T09:16:00;18.10;99.90
11538;DHT22;50159;49.426;11.182;2023-07-29T09:18:27;18.10;99.90
11538;DHT22;50159;49.426;11.182;2023-07-29T09:20:58;18.10;99.90
11538;DHT22;50159;49.426;11.182;2023-07-29T09:23:27;18.20;99.90
11538;DHT22;50159;49.426;11.182;2023-07-29T09:26:01;18.30;99.90
11538;DHT22;50159;49.426;11.182;2023-07-29T09:28:34;18.30;99.90
11538;DHT22;50159;49.426;11.182;2023-07-29T09:31:02;18.40;99.90
11538;DHT22;50159;49.426;11.182;2023-07-29T09:33:33;18.40;99.90
11538;DHT22;50159;49.426;11.182;2023-07-29T09:36:09;18.40;99.90
11538;DHT22;50159;49.426;11.182;2023-07-29T09:38:37;18.40;99.90
11538;DHT22;50159;49.426;11.182;2023-07-29T09:41:04;18.40;99.90
11538;DHT22;50159;49.426;11.182;2023-07-29T09:43:32;18.40;99.90
11538;DHT22;50159;49.426;11.182;2023-07-29T09:46:02;18.30;99.90
11538;DHT22;50159;49.426;11.182;2023-07-29T09:48:33;18.30;99.90
11538;DHT22;50159;49.426;11.182;2023-07-29T09:51:10;18.20;99.90
11538;DHT22;50159;49.426;11.182;2023-07-29T09:53:46;18.20;99.90
11538;DHT22;50159;49.426;11.182;2023-07-29T09:56:14;18.20;99.90
11538;DHT22;50159;49.426;11.182;2023-07-29T09:58:45;18.20;99.90
11538;DHT22;50159;49.426;11.182;2023-07-29T10:01:13;18.30;99.90
11538;DHT22;50159;49.426;11.182;2023-07-29T10:03:40;18.40;99.90
11538;DHT22;50159;49.426;11.182;2023-07-29T10:06:09;18.50;99.90
11538;DHT22;50159;49.426;11.182;2023-07-29T10:08:36;18.60;99.90
11538;DHT22;50159;49.426;11.182;2023-07-29T10:11:09;18.80;99.90
11538;DHT22;50159;49.426;11.182;2023-07-29T10:13:38;19.00;99.90
11538;DHT22;50159;49.426;11.182;2023-07-29T10:16:05;19.30;99.90
11538;DHT22;50159;49.426;11.182;2023-07-29T10:18:33;19.50;99.90
11538;DHT22;50159;49.426;11.182;2023-07-29T10:21:01;19.80;99.90
11538;DHT22;50159;49.426;11.182;2023-07-29T10:23:34;19.90;99.90
11538;DHT22;50159;49.426;11.182;2023-07-29T10:26:06;20.00;99.90
11538;DHT22;50159;49.426;11.182;2023-07-29T10:28:40;20.20;99.90
11538;DHT22;50159;49.426;11.182;2023-07-29T10:31:08;20.40;99.90
11538;DHT22;50159;49.426;11.182;2023-07-29T10:33:36;20.40;99.90
11538;DHT22;50159;49.426;11.182;2023-07-29T10:36:04;20.60;99.90
11538;DHT22;50159;49.426;11.182;2023-07-29T10:38:31;20.90;99.90
11538;DHT22;50159;49.426;11.182;2023-07-29T10:40:59;21.10;99.90
11538;DHT22;50159;49.426;11.182;2023-07-29T10:43:35;21.30;99.90
11538;DHT22;50159;49.426;11.182;2023-07-29T10:46:26;21.40;99.90
11538;DHT22;50159;49.426;11.182;2023-07-29T10:48:55;21.40;99.90
11538;DHT22;50159;49.426;11.182;2023-07-29T10:51:31;21.40;99.90
11538;DHT22;50159;49.426;11.182;2023-07-29T10:54:12;21.60;99.90
11538;DHT22;50159;49.426;11.182;2023-07-29T10:56:42;21.80;99.90
11538;DHT22;50159;49.426;11.182;2023-07-29T11:01:58;22.10;99.90
11538;DHT22;50159;49.426;11.182;2023-07-29T11:04:27;22.00;99.90
11538;DHT22;50159;49.426;11.182;2023-07-29T11:09:51;22.00;99.90
11538;DHT22;50159;49.426;11.182;2023-07-29T11:12:49;22.00;99.90
11538;DHT22;50159;49.426;11.182;2023-07-29T11:15:24;22.20;99.90
11538;DHT22;50159;49.426;11.182;2023-07-29T11:17:55;22.30;99.90
11538;DHT22;50159;49.426;11.182;2023-07-29T11:20:28;22.50;99.90
11538;DHT22;50159;49.426;11.182;2023-07-29T11:22:58;22.70;99.90
11538;DHT22;50159;49.426;11.182;2023-07-29T11:25:30;22.60;99.90
11538;DHT22;50159;49.426;11.182;2023-07-29T11:27:59;22.50;99.90
11538;DHT22;50159;49.426;11.182;2023-07-29T11:30:32;22.40;99.90
11538;DHT22;50159;49.426;11.182;2023-07-29T11:33:00;22.30;99.90
11538;DHT22;50159;49.426;11.182;2023-07-29T11:35:27;22.00;99.90
11538;DHT22;50159;49.426;11.182;2023-07-29T11:37:54;21.90;99.90
11538;DHT22;50159;49.426;11.182;2023-07-29T11:40:25;21.80;99.90
11538;DHT22;50159;49.426;11.182;2023-07-29T11:42:52;21.60;99.90
11538;DHT22;50159;49.426;11.182;2023-07-29T11:45:22;21.50;99.90
11538;DHT22;50159;49.426;11.182;2023-07-29T11:48:06;21.30;99.90
11538;DHT22;50159;49.426;11.182;2023-07-29T11:50:33;21.10;99.90
11538;DHT22;50159;49.426;11.182;2023-07-29T11:53:02;20.90;99.90
11538;DHT22;50159;49.426;11.182;2023-07-29T11:55:30;20.70;99.90
11538;DHT22;50159;49.426;11.182;2023-07-29T11:57:57;20.60;99.90
11538;DHT22;50159;49.426;11.182;2023-07-29T12:00:25;20.50;99.90
11538;DHT22;50159;49.426;11.182;2023-07-29T12:02:52;20.60;99.90
11538;DHT22;50159;49.426;11.182;2023-07-29T12:05:21;20.70;99.90
11538;DHT22;50159;49.426;11.182;2023-07-29T12:07:49;20.80;99.90
11538;DHT22;50159;49.426;11.182;2023-07-29T12:10:17;21.10;99.90
11538;DHT22;50159;49.426;11.182;2023-07-29T12:12:46;21.40;99.90
11538;DHT22;50159;49.426;11.182;2023-07-29T12:15:23;21.70;99.90
11538;DHT22;50159;49.426;11.182;2023-07-29T12:17:53;21.80;99.90
11538;DHT22;50159;49.426;11.182;2023-07-29T12:20:23;22.00;99.90
11538;DHT22;50159;49.426;11.182;2023-07-29T12:22:58;22.30;99.90
11538;DHT22;50159;49.426;11.182;2023-07-29T12:25:28;22.70;99.90
11538;DHT22;50159;49.426;11.182;2023-07-29T12:27:55;23.10;99.90
11538;DHT22;50159;49.426;11.182;2023-07-29T12:30:22;23.50;99.90
11538;DHT22;50159;49.426;11.182;2023-07-29T12:32:51;23.60;99.90
11538;DHT22;50159;49.426;11.182;2023-07-29T12:35:18;23.90;99.90
11538;DHT22;50159;49.426;11.182;2023-07-29T12:37:45;24.00;99.90
11538;DHT22;50159;49.426;11.182;2023-07-29T12:40:25;23.90;99.90
11538;DHT22;50159;49.426;11.182;2023-07-29T12:42:53;24.00;99.90
11538;DHT22;50159;49.426;11.182;2023-07-29T12:45:20;24.30;99.90
11538;DHT22;50159;49.426;11.182;2023-07-29T12:47:50;24.50;99.90
11538;DHT22;50159;49.426;11.182;2023-07-29T12:50:17;24.40;99.90
11538;DHT22;50159;49.426;11.182;2023-07-29T12:52:44;24.30;99.90
11538;DHT22;50159;49.426;11.182;2023-07-29T12:55:11;24.40;99.90
11538;DHT22;50159;49.426;11.182;2023-07-29T12:57:41;24.70;99.90
11538;DHT22;50159;49.426;11.182;2023-07-29T13:00:10;24.70;99.90
11538;DHT22;50159;49.426;11.182;2023-07-29T13:02:38;24.80;99.90
11538;DHT22;50159;49.426;11.182;2023-07-29T13:05:05;24.90;99.90
11538;DHT22;50159;49.426;11.182;2023-07-29T13:07:35;25.20;99.90
11538;DHT22;50159;49.426;11.182;2023-07-29T13:10:02;25.40;99.90
11538;DHT22;50159;49.426;11.182;2023-07-29T13:12:30;25.60;99.90
11538;DHT22;50159;49.426;11.182;2023-07-29T13:14:56;25.70;99.90
11538;DHT22;50159;49.426;11.182;2023-07-29T13:17:23;25.80;99.90
11538;DHT22;50159;49.426;11.182;2023-07-29T13:19:51;25.80;99.90
11538;DHT22;50159;49.426;11.182;2023-07-29T13:22:19;26.00;99.90
11538;DHT22;50159;49.426;11.182;2023-07-29T13:24:46;26.10;99.90
11538;DHT22;50159;49.426;11.182;2023-07-29T13:27:13;26.30;99.10
11538;DHT22;50159;49.426;11.182;2023-07-29T13:29:40;26.50;97.70
11538;DHT22;50159;49.426;11.182;2023-07-29T13:32:07;26.40;95.70
11538;DHT22;50159;49.426;11.182;2023-07-29T13:34:35;26.60;95.00
11538;DHT22;50159;49.426;11.182;2023-07-29T13:37:02;26.60;93.60
11538;DHT22;50159;49.426;11.182;2023-07-29T13:39:28;26.10;89.50
11538;DHT22;50159;49.426;11.182;2023-07-29T13:41:55;25.60;91.10
11538;DHT22;50159;49.426;11.182;2023-07-29T13:44:22;25.30;93.10
11538;DHT22;50159;49.426;11.182;2023-07-29T13:46:49;25.10;93.90
11538;DHT22;50159;49.426;11.182;2023-07-29T13:49:16;24.80;94.30
11538;DHT22;50159;49.426;11.182;2023-07-29T13:51:43;24.70;94.80
11538;DHT22;50159;49.426;11.182;2023-07-29T13:54:10;24.70;97.00
11538;DHT22;50159;49.426;11.182;2023-07-29T13:56:37;24.80;94.80
11538;DHT22;50159;49.426;11.182;2023-07-29T13:59:04;24.80;95.10
11538;DHT22;50159;49.426;11.182;2023-07-29T14:01:31;25.00;96.00
11538;DHT22;50159;49.426;11.182;2023-07-29T14:03:58;25.10;95.70
11538;DHT22;50159;49.426;11.182;2023-07-29T14:06:24;25.40;92.00
11538;DHT22;50159;49.426;11.182;2023-07-29T14:09:10;25.10;92.20
11538;DHT22;50159;49.426;11.182;2023-07-29T14:11:37;25.00;94.50
11538;DHT22;50159;49.426;11.182;2023-07-29T14:14:04;24.90;92.60
11538;DHT22;50159;49.426;11.182;2023-07-29T14:16:31;24.90;92.70
11538;DHT22;50159;49.426;11.182;2023-07-29T14:18:58;25.10;92.80
11538;DHT22;50159;49.426;11.182;2023-07-29T14:21:24;25.10;92.10
11538;DHT22;50159;49.426;11.182;2023-07-29T14:23:51;25.30;91.00
11538;DHT22;50159;49.426;11.182;2023-07-29T14:26:18;25.20;89.40
11538;DHT22;50159;49.426;11.182;2023-07-29T14:28:45;25.30;90.50
11538;DHT22;50159;49.426;11.182;2023-07-29T14:31:12;25.30;90.20
11538;DHT22;50159;49.426;11.182;2023-07-29T14:33:40;25.50;87.10
11538;DHT22;50159;49.426;11.182;2023-07-29T14:36:06;25.40;84.30
11538;DHT22;50159;49.426;11.182;2023-07-29T14:38:35;25.10;85.90
11538;DHT22;50159;49.426;11.182;2023-07-29T14:41:03;25.00;89.40
11538;DHT22;50159;49.426;11.182;2023-07-29T14:43:30;25.20;90.60
11538;DHT22;50159;49.426;11.182;2023-07-29T14:45:57;25.60;88.30
11538;DHT22;50159;49.426;11.182;2023-07-29T14:48:24;25.60;87.00
11538;DHT22;50159;49.426;11.182;2023-07-29T14:50:51;25.40;87.50
11538;DHT22;50159;49.426;11.182;2023-07-29T14:53:18;25.30;87.90
11538;DHT22;50159;49.426;11.182;2023-07-29T14:55:45;25.10;86.70
11538;DHT22;50159;49.426;11.182;2023-07-29T14:58:12;24.80;85.40
11538;DHT22;50159;49.426;11.182;2023-07-29T15:00:39;24.80;89.30
11538;DHT22;50159;49.426;11.182;2023-07-29T15:03:06;25.60;82.70
11538;DHT22;50159;49.426;11.182;2023-07-29T15:05:34;26.80;80.20
11538;DHT22;50159;49.426;11.182;2023-07-29T15:08:01;28.60;68.90
11538;DHT22;50159;49.426;11.182;2023-07-29T15:10:28;29.60;61.10
11538;DHT22;50159;49.426;11.182;2023-07-29T15:12:54;29.90;59.00
11538;DHT22;50159;49.426;11.182;2023-07-29T15:15:21;30.60;55.90
11538;DHT22;50159;49.426;11.182;2023-07-29T15:17:48;31.10;53.40
11538;DHT22;50159;49.426;11.182;2023-07-29T15:20:15;31.90;53.00
11538;DHT22;50159;49.426;11.182;2023-07-29T15:22:42;32.60;50.50
11538;DHT22;50159;49.426;11.182;2023-07-29T15:25:09;33.10;49.20
11538;DHT22;50159;49.426;11.182;2023-07-29T15:27:37;33.60;48.60
11538;DHT22;50159;49.426;11.182;2023-07-29T15:30:08;33.70;44.40
11538;DHT22;50159;49.426;11.182;2023-07-29T15:32:35;32.80;45.80